sensor_id;sensor_type;location;lat;lon;timestamp;temperature;humidity
26021;DHT22;13798;48.858;9.092;2023-11-21T05:03:11;179.90;2252.80
26021;DHT22;13798;48.858;9.092;2023-11-21T05:05:37;179.70;2252.80
26021;DHT22;13798;48.858;9.092;2023-11-21T05:08:03;179.80;2252.80
26021;DHT22;13798;48.858;9.092;2023-11-21T05:10:29;179.70;2252.80
26021;DHT22;13798;48.858;9.092;2023-11-21T05:12:55;179.90;2252.80
26021;DHT22;13798;48.858;9.092;2023-11-21T05:15:21;179.70;2252.80
26021;DHT22;13798;48.858;9.092;2023-11-21T05:17:47;179.50;2252.80
26021;DHT22;13798;48.858;9.092;2023-11-21T05:20:16;179.40;2252.80
26021;DHT22;13798;48.858;9.092;2023-11-21T05:22:49;179.40;2252.80
26021;DHT22;13798;48.858;9.092;2023-11-21T05:25:15;179.40;2252.80
26021;DHT22;13798;48.858;9.092;2023-11-21T05:27:46;179.40;2252.80
26021;DHT22;13798;48.858;9.092;2023-11-21T05:30:13;179.40;2252.80
26021;DHT22;13798;48.858;9.092;2023-11-21T05:32:40;179.40;2252.80
26021;DHT22;13798;48.858;9.092;2023-11-21T05:35:07;179.30;2252.80
26021;DHT22;13798;48.858;9.092;2023-11-21T05:37:37;179.50;2252.80
26021;DHT22;13798;48.858;9.092;2023-11-21T05:40:04;179.60;2252.80
26021;DHT22;13798;48.858;9.092;2023-11-21T06:14:41;179.70;2252.80
26021;DHT22;13798;48.858;9.092;2023-11-21T06:17:07;179.50;2252.80
26021;DHT22;13798;48.858;9.092;2023-11-21T06:19:32;179.90;2252.80
26021;DHT22;13798;48.858;9.092;2023-11-21T06:21:58;179.50;2252.80
26021;DHT22;13798;48.858;9.092;2023-11-21T06:24:23;179.50;2252.80
26021;DHT22;13798;48.858;9.092;2023-11-21T06:26:49;179.50;2252.80
26021;DHT22;13798;48.858;9.092;2023-11-21T06:29:14;179.70;2252.80
26021;DHT22;13798;48.858;9.092;2023-11-21T06:31:40;179.40;2252.80
26021;DHT22;13798;48.858;9.092;2023-11-21T06:34:06;179.70;2252.80
26021;DHT22;13798;48.858;9.092;2023-11-21T06:36:31;179.60;2252.80
26021;DHT22;13798;48.858;9.092;2023-11-21T06:38:57;179.60;2252.80
26021;DHT22;13798;48.858;9.092;2023-11-21T06:41:22;179.70;2252.80
26021;DHT22;13798;48.858;9.092;2023-11-21T06:43:48;179.70;2252.80
26021;DHT22;13798;48.858;9.092;2023-11-21T06:46:14;179.70;2252.80
26021;DHT22;13798;48.858;9.092;2023-11-21T06:48:42;179.60;2252.80
26021;DHT22;13798;48.858;9.092;2023-11-21T06:51:08;179.70;2252.80
26021;DHT22;13798;48.858;9.092;2023-11-21T06:53:33;179.60;2252.80
26021;DHT22;13798;48.858;9.092;2023-11-21T06:55:59;179.50;2252.80
26021;DHT22;13798;48.858;9.092;2023-11-21T06:58:24;179.40;2252.80
26021;DHT22;13798;48.858;9.092;2023-11-21T07:00:50;179.60;2252.80
26021;DHT22;13798;48.858;9.092;2023-11-21T07:03:15;179.70;2252.80
26021;DHT22;13798;48.858;9.092;2023-11-21T07:05:41;179.80;2252.80
26021;DHT22;13798;48.858;9.092;2023-11-21T07:08:06;179.90;2252.80
26021;DHT22;13798;48.858;9.092;2023-11-21T07:10:33;179.80;2252.80
26021;DHT22;13798;48.858;9.092;2023-11-21T07:12:58;179.90;2252.80
26021;DHT22;13798;48.858;9.092;2023-11-21T07:15:24;179.90;2252.80
26021;DHT22;13798;48.858;9.092;2023-11-21T07:17:51;180.00;2252.80
26021;DHT22;13798;48.858;9.092;2023-11-21T07:20:19;179.90;2252.80
26021;DHT22;13798;48.858;9.092;2023-11-21T07:22:45;180.10;2252.80
26021;DHT22;13798;48.858;9.092;2023-11-21T07:25:11;180.10;2252.80
26021;DHT22;13798;48.858;9.092;2023-11-21T07:27:37;180.10;2252.80
26021;DHT22;13798;48.858;9.092;2023-11-21T07:30:03;204.80;2252.80
26021;DHT22;13798;48.858;9.092;2023-11-21T07:32:33;204.80;2252.80
26021;DHT22;13798;48.858;9.092;2023-11-21T07:34:59;204.80;2252.80
26021;DHT22;13798;48.858;9.092;2023-11-21T07:37:26;204.90;2252.80
26021;DHT22;13798;48.858;9.092;2023-11-21T07:39:54;204.80;2252.80
26021;DHT22;13798;48.858;9.092;2023-11-21T07:42:24;204.90;2252.80
26021;DHT22;13798;48.858;9.092;2023-11-21T07:44:52;204.90;2252.80
26021;DHT22;13798;48.858;9.092;2023-11-21T07:47:17;204.80;2252.80
26021;DHT22;13798;48.858;9.092;2023-11-21T07:49:43;204.90;2252.80
26021;DHT22;13798;48.858;9.092;2023-11-21T07:52:10;205.10;2252.80
26021;DHT22;13798;48.858;9.092;2023-11-21T07:54:35;205.00;2252.80
26021;DHT22;13798;48.858;9.092;2023-11-21T07:57:01;205.10;2252.80
26021;DHT22;13798;48.858;9.092;2023-11-21T07:59:29;205.20;2252.80
26021;DHT22;13798;48.858;9.092;2023-11-21T08:01:55;205.40;2252.80
26021;DHT22;13798;48.858;9.092;2023-11-21T08:04:20;205.20;2252.80
26021;DHT22;13798;48.858;9.092;2023-11-21T08:06:46;230.40;2252.80
26021;DHT22;13798;48.858;9.092;2023-11-21T08:09:11;230.70;2252.80
26021;DHT22;13798;48.858;9.092;2023-11-21T08:11:38;256.40;2252.80
26021;DHT22;13798;48.858;9.092;2023-11-21T08:14:04;230.60;1996.80
26021;DHT22;13798;48.858;9.092;2023-11-21T08:16:30;230.40;2252.80
26021;DHT22;13798;48.858;9.092;2023-11-21T08:18:55;205.70;2252.80
26021;DHT22;13798;48.858;9.092;2023-11-21T08:21:22;205.70;2252.80
26021;DHT22;13798;48.858;9.092;2023-11-21T08:23:50;205.40;2252.80
26021;DHT22;13798;48.858;9.092;2023-11-21T08:26:19;205.50;2252.80
26021;DHT22;13798;48.858;9.092;2023-11-21T08:28:45;205.60;2252.80
26021;DHT22;13798;48.858;9.092;2023-11-21T08:31:10;230.40;2252.80
26021;DHT22;13798;48.858;9.092;2023-11-21T08:33:36;205.60;2252.80
26021;DHT22;13798;48.858;9.092;2023-11-21T08:36:07;205.50;2252.80
26021;DHT22;13798;48.858;9.092;2023-11-21T08:38:33;205.70;2252.80
26021;DHT22;13798;48.858;9.092;2023-11-21T08:40:59;205.60;2252.80
26021;DHT22;13798;48.858;9.092;2023-11-21T08:43:25;205.70;2252.80
26021;DHT22;13798;48.858;9.092;2023-11-21T08:45:52;205.50;2252.80
26021;DHT22;13798;48.858;9.092;2023-11-21T08:48:18;205.50;2252.80
26021;DHT22;13798;48.858;9.092;2023-11-21T08:50:43;205.50;2252.80
26021;DHT22;13798;48.858;9.092;2023-11-21T08:53:09;205.50;2252.80
26021;DHT22;13798;48.858;9.092;2023-11-21T08:55:36;205.60;2252.80
26021;DHT22;13798;48.858;9.092;2023-11-21T08:58:02;205.50;2252.80
26021;DHT22;13798;48.858;9.092;2023-11-21T09:00:31;205.30;2252.80
26021;DHT22;13798;48.858;9.092;2023-11-21T09:02:56;205.30;2252.80
26021;DHT22;13798;48.858;9.092;2023-11-21T09:05:23;205.40;2252.80
26021;DHT22;13798;48.858;9.092;2023-11-21T09:07:48;205.60;2252.80
26021;DHT22;13798;48.858;9.092;2023-11-21T09:10:14;205.70;2252.80
26021;DHT22;13798;48.858;9.092;2023-11-21T09:12:40;205.60;2252.80
26021;DHT22;13798;48.858;9.092;2023-11-21T09:15:06;205.50;2252.80
26021;DHT22;13798;48.858;9.092;2023-11-21T09:17:33;205.60;2252.80
26021;DHT22;13798;48.858;9.092;2023-11-21T09:19:59;205.50;2252.80
26021;DHT22;13798;48.858;9.092;2023-11-21T09:22:25;205.60;2252.80
26021;DHT22;13798;48.858;9.092;2023-11-21T09:24:51;205.70;2252.80
26021;DHT22;13798;48.858;9.092;2023-11-21T09:27:17;205.50;2252.80
26021;DHT22;13798;48.858;9.092;2023-11-21T09:29:43;205.30;2252.80
26021;DHT22;13798;48.858;9.092;2023-11-21T09:32:08;205.60;2252.80
26021;DHT22;13798;48.858;9.092;2023-11-21T09:34:38;205.30;2252.80
26021;DHT22;13798;48.858;9.092;2023-11-21T09:37:04;205.30;2252.80
26021;DHT22;13798;48.858;9.092;2023-11-21T09:39:31;205.40;2252.80
26021;DHT22;13798;48.858;9.092;2023-11-21T09:42:21;205.40;2252.80
26021;DHT22;13798;48.858;9.092;2023-11-21T09:44:50;205.40;2252.80
26021;DHT22;13798;48.858;9.092;2023-11-21T09:47:17;205.40;2252.80
26021;DHT22;13798;48.858;9.092;2023-11-21T09:49:48;205.60;2252.80
26021;DHT22;13798;48.858;9.092;2023-11-21T09:52:23;205.60;2252.80
26021;DHT22;13798;48.858;9.092;2023-11-21T09:54:51;205.50;2252.80
26021;DHT22;13798;48.858;9.092;2023-11-21T09:57:21;205.40;2252.80
26021;DHT22;13798;48.858;9.092;2023-11-21T09:59:53;205.40;2252.80
26021;DHT22;13798;48.858;9.092;2023-11-21T10:02:26;205.50;2252.80
26021;DHT22;13798;48.858;9.092;2023-11-21T10:04:53;205.20;2252.80
26021;DHT22;13798;48.858;9.092;2023-11-21T10:07:20;205.50;2252.80
26021;DHT22;13798;48.858;9.092;2023-11-21T10:09:47;205.50;2252.80
26021;DHT22;13798;48.858;9.092;2023-11-21T10:12:15;205.60;2252.80
26021;DHT22;13798;48.858;9.092;2023-11-21T10:14:42;205.70;2252.80
26021;DHT22;13798;48.858;9.092;2023-11-21T10:17:10;230.40;2252.80
26021;DHT22;13798;48.858;9.092;2023-11-21T10:19:39;230.50;2252.80
26021;DHT22;13798;48.858;9.092;2023-11-21T10:22:05;230.70;2252.80
26021;DHT22;13798;48.858;9.092;2023-11-21T10:24:32;205.70;2252.80
26021;DHT22;13798;48.858;9.092;2023-11-21T10:26:58;230.90;2252.80
26021;DHT22;13798;48.858;9.092;2023-11-21T10:29:23;230.90;2252.80
26021;DHT22;13798;48.858;9.092;2023-11-21T10:31:50;230.90;2252.80
26021;DHT22;13798;48.858;9.092;2023-11-21T10:34:20;230.70;2176.00
26021;DHT22;13798;48.858;9.092;2023-11-21T10:36:46;231.10;2252.80
26021;DHT22;13798;48.858;9.092;2023-11-21T10:39:19;231.30;2176.00
26021;DHT22;13798;48.858;9.092;2023-11-21T10:41:45;231.30;2227.20
26021;DHT22;13798;48.858;9.092;2023-11-21T10:44:15;231.20;2150.40
26021;DHT22;13798;48.858;9.092;2023-11-21T10:46:52;230.80;2227.20
26021;DHT22;13798;48.858;9.092;2023-11-21T10:49:22;231.20;2227.20
26021;DHT22;13798;48.858;9.092;2023-11-21T10:51:50;230.80;2150.40
26021;DHT22;13798;48.858;9.092;2023-11-21T10:54:21;231.20;2124.80
26021;DHT22;13798;48.858;9.092;2023-11-21T10:56:49;231.10;2227.20
26021;DHT22;13798;48.858;9.092;2023-11-21T10:59:17;231.00;2099.20
26021;DHT22;13798;48.858;9.092;2023-11-21T11:01:45;231.10;2201.60
26021;DHT22;13798;48.858;9.092;2023-11-21T11:04:12;230.90;2176.00
26021;DHT22;13798;48.858;9.092;2023-11-21T11:06:43;231.20;2150.40
26021;DHT22;13798;48.858;9.092;2023-11-21T11:09:13;231.20;2227.20
26021;DHT22;13798;48.858;9.092;2023-11-21T11:11:42;230.70;2201.60
26021;DHT22;13798;48.858;9.092;2023-11-21T11:14:11;231.30;2176.00
26021;DHT22;13798;48.858;9.092;2023-11-21T11:16:39;256.30;1920.00
26021;DHT22;13798;48.858;9.092;2023-11-21T11:19:09;256.30;1920.00
26021;DHT22;13798;48.858;9.092;2023-11-21T11:22:01;282.20;2278.40
26021;DHT22;13798;48.858;9.092;2023-11-21T11:24:54;307.30;2304.00
26021;DHT22;13798;48.858;9.092;2023-11-21T11:38:10;358.50;2329.60
26021;DHT22;13798;48.858;9.092;2023-11-21T11:40:46;384.10;2329.60
26021;DHT22;13798;48.858;9.092;2023-11-21T11:43:12;358.60;2329.60
26021;DHT22;13798;48.858;9.092;2023-11-21T11:45:37;307.40;2304.00
26021;DHT22;13798;48.858;9.092;2023-11-21T11:48:11;307.30;2304.00
26021;DHT22;13798;48.858;9.092;2023-11-21T11:50:53;307.20;2304.00
26021;DHT22;13798;48.858;9.092;2023-11-21T11:53:33;282.00;2278.40
26021;DHT22;13798;48.858;9.092;2023-11-21T11:56:23;281.60;2278.40
26021;DHT22;13798;48.858;9.092;2023-11-21T11:58:54;256.90;2252.80
26021;DHT22;13798;48.858;9.092;2023-11-21T12:01:20;256.30;2073.60
26021;DHT22;13798;48.858;9.092;2023-11-21T12:06:43;256.50;2252.80
26021;DHT22;13798;48.858;9.092;2023-11-21T12:09:20;256.30;2201.60
26021;DHT22;13798;48.858;9.092;2023-11-21T12:11:47;256.30;2252.80
26021;DHT22;13798;48.858;9.092;2023-11-21T12:14:14;256.50;2252.80
26021;DHT22;13798;48.858;9.092;2023-11-21T12:16:40;256.90;2073.60
26021;DHT22;13798;48.858;9.092;2023-11-21T12:19:08;256.70;2022.40
26021;DHT22;13798;48.858;9.092;2023-11-21T12:21:33;256.90;2099.20
26021;DHT22;13798;48.858;9.092;2023-11-21T12:23:59;256.90;2099.20
26021;DHT22;13798;48.858;9.092;2023-11-21T12:26:25;281.70;2124.80
26021;DHT22;13798;48.858;9.092;2023-11-21T12:28:54;281.80;2073.60
26021;DHT22;13798;48.858;9.092;2023-11-21T12:31:22;281.80;2278.40
26021;DHT22;13798;48.858;9.092;2023-11-21T12:33:48;282.30;1920.00
26021;DHT22;13798;48.858;9.092;2023-11-21T12:36:14;282.30;2278.40
26021;DHT22;13798;48.858;9.092;2023-11-21T12:38:40;307.80;2304.00
26021;DHT22;13798;48.858;9.092;2023-11-21T12:41:08;307.90;2304.00
26021;DHT22;13798;48.858;9.092;2023-11-21T12:43:35;332.90;2329.60
26021;DHT22;13798;48.858;9.092;2023-11-21T12:46:08;307.80;2304.00
26021;DHT22;13798;48.858;9.092;2023-11-21T12:48:39;307.30;2304.00
26021;DHT22;13798;48.858;9.092;2023-11-21T12:51:07;282.10;2278.40
26021;DHT22;13798;48.858;9.092;2023-11-21T12:53:33;256.90;1971.20
26021;DHT22;13798;48.858;9.092;2023-11-21T12:56:07;256.70;2252.80
26021;DHT22;13798;48.858;9.092;2023-11-21T12:58:34;256.20;2176.00
26021;DHT22;13798;48.858;9.092;2023-11-21T13:01:01;256.10;2252.80
26021;DHT22;13798;48.858;9.092;2023-11-21T13:03:29;231.30;2252.80
26021;DHT22;13798;48.858;9.092;2023-11-21T13:05:55;231.30;2252.80
26021;DHT22;13798;48.858;9.092;2023-11-21T13:08:23;231.10;2252.80
26021;DHT22;13798;48.858;9.092;2023-11-21T13:10:55;231.20;2252.80
26021;DHT22;13798;48.858;9.092;2023-11-21T13:13:22;231.30;2252.80
26021;DHT22;13798;48.858;9.092;2023-11-21T13:15:55;231.10;2252.80
26021;DHT22;13798;48.858;9.092;2023-11-21T13:18:24;231.10;2252.80
26021;DHT22;13798;48.858;9.092;2023-11-21T13:20:53;231.30;2252.80
26021;DHT22;13798;48.858;9.092;2023-11-21T13:23:18;231.00;2252.80
26021;DHT22;13798;48.858;9.092;2023-11-21T13:25:44;231.10;2252.80
26021;DHT22;13798;48.858;9.092;2023-11-21T13:28:14;231.20;2252.80
26021;DHT22;13798;48.858;9.092;2023-11-21T13:30:46;231.10;2252.80
26021;DHT22;13798;48.858;9.092;2023-11-21T13:33:12;231.10;2252.80
26021;DHT22;13798;48.858;9.092;2023-11-21T13:35:43;231.00;2252.80
26021;DHT22;13798;48.858;9.092;2023-11-21T13:38:15;230.90;2252.80
26021;DHT22;13798;48.858;9.092;2023-11-21T13:40:47;231.00;2252.80
26021;DHT22;13798;48.858;9.092;2023-11-21T13:43:18;231.10;2252.80
26021;DHT22;13798;48.858;9.092;2023-11-21T13:45:44;231.20;2252.80
26021;DHT22;13798;48.858;9.092;2023-11-21T13:48:11;256.00;2252.80
26021;DHT22;13798;48.858;9.092;2023-11-21T13:50:42;256.20;2252.80
26021;DHT22;13798;48.858;9.092;2023-11-21T13:53:34;256.20;2252.80
26021;DHT22;13798;48.858;9.092;2023-11-21T13:56:03;256.70;2252.80
26021;DHT22;13798;48.858;9.092;2023-11-21T13:58:29;256.70;2252.80
26021;DHT22;13798;48.858;9.092;2023-11-21T14:01:16;256.40;2252.80
26021;DHT22;13798;48.858;9.092;2023-11-21T14:04:03;256.30;2252.80
26021;DHT22;13798;48.858;9.092;2023-11-21T14:06:35;256.20;2252.80
26021;DHT22;13798;48.858;9.092;2023-11-21T14:09:11;256.30;2252.80
26021;DHT22;13798;48.858;9.092;2023-11-21T14:11:39;256.10;2252.80
26021;DHT22;13798;48.858;9.092;2023-11-21T14:14:04;256.20;2252.80
26021;DHT22;13798;48.858;9.092;2023-11-21T14:16:30;256.00;2252.80
26021;DHT22;13798;48.858;9.092;2023-11-21T14:18:56;231.30;2252.80
26021;DHT22;13798;48.858;9.092;2023-11-21T14:21:29;256.20;2252.80
26021;DHT22;13798;48.858;9.092;2023-11-21T14:23:54;256.10;2252.80
26021;DHT22;13798;48.858;9.092;2023-11-21T14:26:20;231.30;2252.80
26021;DHT22;13798;48.858;9.092;2023-11-21T14:28:46;231.20;2252.80
26021;DHT22;13798;48.858;9.092;2023-11-21T14:31:14;231.20;2252.80
26021;DHT22;13798;48.858;9.092;2023-11-21T14:33:43;231.20;2252.80
26021;DHT22;13798;48.858;9.092;2023-11-21T16:50:43;180.10;2252.80
26021;DHT22;13798;48.858;9.092;2023-11-21T16:53:09;180.10;2252.80
26021;DHT22;13798;48.858;9.092;2023-11-21T16:55:34;179.90;2252.80
26021;DHT22;13798;48.858;9.092;2023-11-21T16:58:00;179.90;2252.80
26021;DHT22;13798;48.858;9.092;2023-11-21T17:00:25;179.90;2252.80
26021;DHT22;13798;48.858;9.092;2023-11-21T17:02:52;179.60;2252.80
26021;DHT22;13798;48.858;9.092;2023-11-21T17:05:17;179.60;2252.80
26021;DHT22;13798;48.858;9.092;2023-11-21T17:07:45;179.60;2252.80
26021;DHT22;13798;48.858;9.092;2023-11-21T17:10:12;179.50;2252.80
26021;DHT22;13798;48.858;9.092;2023-11-21T17:12:38;179.60;2252.80
26021;DHT22;13798;48.858;9.092;2023-11-21T17:15:04;179.60;2252.80
26021;DHT22;13798;48.858;9.092;2023-11-21T17:17:30;179.50;2252.80
26021;DHT22;13798;48.858;9.092;2023-11-21T17:19:55;179.40;2252.80
26021;DHT22;13798;48.858;9.092;2023-11-21T17:22:21;179.70;2252.80
26021;DHT22;13798;48.858;9.092;2023-11-21T17:24:49;179.50;2252.80
26021;DHT22;13798;48.858;9.092;2023-11-21T17:27:15;179.60;2252.80
26021;DHT22;13798;48.858;9.092;2023-11-21T17:29:40;179.30;2252.80
26021;DHT22;13798;48.858;9.092;2023-11-21T17:32:06;179.70;2252.80
26021;DHT22;13798;48.858;9.092;2023-11-21T17:34:31;179.50;2252.80
26021;DHT22;13798;48.858;9.092;2023-11-21T17:36:57;179.60;2252.80
26021;DHT22;13798;48.858;9.092;2023-11-21T17:39:22;179.60;2252.80
26021;DHT22;13798;48.858;9.092;2023-11-21T17:41:48;179.40;2252.80
26021;DHT22;13798;48.858;9.092;2023-11-21T17:44:14;179.40;2252.80
26021;DHT22;13798;48.858;9.092;2023-11-21T17:46:40;179.60;2252.80
26021;DHT22;13798;48.858;9.092;2023-11-21T17:49:06;179.60;2252.80
26021;DHT22;13798;48.858;9.092;2023-11-21T17:51:38;179.70;2252.80
26021;DHT22;13798;48.858;9.092;2023-11-21T17:54:05;179.80;2252.80
26021;DHT22;13798;48.858;9.092;2023-11-21T17:56:32;179.90;2252.80
26021;DHT22;13798;48.858;9.092;2023-11-21T17:58:58;179.90;2252.80
26021;DHT22;13798;48.858;9.092;2023-11-21T18:01:24;179.90;2252.80
26021;DHT22;13798;48.858;9.092;2023-11-21T18:03:56;179.90;2252.80
26021;DHT22;13798;48.858;9.092;2023-11-21T18:06:21;180.00;2252.80
26021;DHT22;13798;48.858;9.092;2023-11-21T18:08:47;180.00;2252.80
26021;DHT22;13798;48.858;9.092;2023-11-21T18:11:13;180.10;2252.80
26021;DHT22;13798;48.858;9.092;2023-11-21T18:13:38;180.00;2252.80
26021;DHT22;13798;48.858;9.092;2023-11-21T18:16:05;180.10;2252.80
26021;DHT22;13798;48.858;9.092;2023-11-21T18:18:33;180.10;2252.80
26021;DHT22;13798;48.858;9.092;2023-11-21T18:21:01;204.80;2252.80
26021;DHT22;13798;48.858;9.092;2023-11-21T18:23:32;180.10;2252.80
26021;DHT22;13798;48.858;9.092;2023-11-21T18:25:59;204.80;2252.80
26021;DHT22;13798;48.858;9.092;2023-11-21T18:28:27;204.80;2252.80
26021;DHT22;13798;48.858;9.092;2023-11-21T18:30:53;204.90;2252.80
26021;DHT22;13798;48.858;9.092;2023-11-21T18:33:19;204.90;2252.80
26021;DHT22;13798;48.858;9.092;2023-11-21T18:35:45;204.80;2252.80
26021;DHT22;13798;48.858;9.092;2023-11-21T18:38:11;204.90;2252.80
26021;DHT22;13798;48.858;9.092;2023-11-21T18:40:37;204.80;2252.80
26021;DHT22;13798;48.858;9.092;2023-11-21T18:43:03;204.80;2252.80
26021;DHT22;13798;48.858;9.092;2023-11-21T18:45:28;180.10;2252.80
26021;DHT22;13798;48.858;9.092;2023-11-21T18:47:54;205.00;2252.80
26021;DHT22;13798;48.858;9.092;2023-11-21T18:50:20;204.90;2252.80
26021;DHT22;13798;48.858;9.092;2023-11-21T18:52:46;204.90;2252.80
26021;DHT22;13798;48.858;9.092;2023-11-21T18:55:15;204.80;2252.80
26021;DHT22;13798;48.858;9.092;2023-11-21T18:57:44;204.90;2252.80
26021;DHT22;13798;48.858;9.092;2023-11-21T19:00:12;205.00;2252.80
26021;DHT22;13798;48.858;9.092;2023-11-21T19:02:39;204.90;2252.80
26021;DHT22;13798;48.858;9.092;2023-11-21T19:05:08;204.90;2252.80
26021;DHT22;13798;48.858;9.092;2023-11-21T19:07:34;204.90;2252.80
26021;DHT22;13798;48.858;9.092;2023-11-21T19:10:02;205.10;2252.80
26021;DHT22;13798;48.858;9.092;2023-11-21T19:12:31;205.00;2252.80
26021;DHT22;13798;48.858;9.092;2023-11-21T19:14:59;204.90;2252.80
26021;DHT22;13798;48.858;9.092;2023-11-21T19:17:24;204.90;2252.80
26021;DHT22;13798;48.858;9.092;2023-11-21T19:19:50;204.90;2252.80
26021;DHT22;13798;48.858;9.092;2023-11-21T19:22:16;205.00;2252.80
26021;DHT22;13798;48.858;9.092;2023-11-21T19:24:41;204.90;2252.80
26021;DHT22;13798;48.858;9.092;2023-11-21T19:27:07;204.90;2252.80
26021;DHT22;13798;48.858;9.092;2023-11-21T19:29:33;205.00;2252.80
26021;DHT22;13798;48.858;9.092;2023-11-21T19:31:59;205.00;2252.80
26021;DHT22;13798;48.858;9.092;2023-11-21T19:34:25;204.90;2252.80
26021;DHT22;13798;48.858;9.092;2023-11-21T19:36:51;180.10;2252.80
26021;DHT22;13798;48.858;9.092;2023-11-21T19:39:17;204.80;2252.80
26021;DHT22;13798;48.858;9.092;2023-11-21T19:41:43;204.80;2252.80
26021;DHT22;13798;48.858;9.092;2023-11-21T19:44:09;180.10;2252.80
26021;DHT22;13798;48.858;9.092;2023-11-21T19:46:34;180.10;2252.80
26021;DHT22;13798;48.858;9.092;2023-11-21T19:49:00;180.10;2252.80
26021;DHT22;13798;48.858;9.092;2023-11-21T19:51:27;204.90;2252.80
26021;DHT22;13798;48.858;9.092;2023-11-21T19:53:53;180.10;2252.80
26021;DHT22;13798;48.858;9.092;2023-11-21T19:56:20;180.10;2252.80
26021;DHT22;13798;48.858;9.092;2023-11-21T19:58:46;179.90;2252.80
26021;DHT22;13798;48.858;9.092;2023-11-21T20:01:11;180.10;2252.80
26021;DHT22;13798;48.858;9.092;2023-11-21T20:03:37;205.10;2252.80
26021;DHT22;13798;48.858;9.092;2023-11-21T20:06:04;180.10;2252.80
26021;DHT22;13798;48.858;9.092;2023-11-21T20:08:31;204.80;2252.80
26021;DHT22;13798;48.858;9.092;2023-11-21T20:10:57;204.80;2252.80
26021;DHT22;13798;48.858;9.092;2023-11-21T20:13:23;180.00;2252.80
26021;DHT22;13798;48.858;9.092;2023-11-21T20:15:48;180.10;2252.80
26021;DHT22;13798;48.858;9.092;2023-11-21T20:18:14;180.00;2252.80
26021;DHT22;13798;48.858;9.092;2023-11-21T20:20:40;180.10;2252.80
26021;DHT22;13798;48.858;9.092;2023-11-21T20:23:18;204.80;2252.80
26021;DHT22;13798;48.858;9.092;2023-11-21T20:26:43;180.10;2252.80
26021;DHT22;13798;48.858;9.092;2023-11-21T20:32:24;204.80;2252.80
26021;DHT22;13798;48.858;9.092;2023-11-21T20:34:55;204.80;2252.80
26021;DHT22;13798;48.858;9.092;2023-11-21T20:41:12;180.10;2252.80
26021;DHT22;13798;48.858;9.092;2023-11-21T20:43:44;180.00;2252.80
26021;DHT22;13798;48.858;9.092;2023-11-21T20:46:48;204.80;2252.80
26021;DHT22;13798;48.858;9.092;2023-11-21T20:52:34;180.10;2252.80
